M I D A S
Marine Information and Data Acquisition System
Tripno 1468 of the Zeeleeuw from 2008-04-29 07:10:44 to 2008-04-29 11:47:07
Back to CruiseResearch ActivitiesStationsMapUnderway DataData graphs

EquipmentUnitsComments
TimeDGPSUTC
LatitudeDGPSDM.mWGS84
LongitudeDGPSDM.mWGS84
SpeedMeteo Stationm/sRelative wind speed
DirectionMeteo StationdegRelative wind direction
TemperatureMeteo Stationdeg CelciusAir temperature
PressureMeteo StationPaAtmospheric pressure
HumidityMeteo Station%Relative humidity
Missing or incorrect values are displayed as -999
Metereological data collected by the RV Zeeleeuw from 2008-04-29 07:11:35 to 2008-04-29 11:57:39
Time Latitude Longitude Speed Direction Temperature Pressure Humidity
2008-04-29 07:12 51°13.681 2°55.893 -999 -999 -999 -999 -999
2008-04-29 07:13 51°13.692 2°55.794 -999 -999 -999 -999 -999
2008-04-29 07:14 51°13.69 2°55.742 -999 -999 -999 -999 -999
2008-04-29 07:15 51°13.698 2°55.735 -999 -999 -999 -999 -999
2008-04-29 07:16 51°13.765 2°55.694 -999 -999 -999 -999 -999
2008-04-29 07:17 51°13.859 2°55.62 -999 -999 -999 -999 -999
2008-04-29 07:18 51°13.953 2°55.547 -999 -999 -999 -999 -999
2008-04-29 07:19 51°14.039 2°55.482 -999 -999 -999 -999 -999
2008-04-29 07:20 51°14.125 2°55.413 -999 -999 -999 -999 -999
2008-04-29 07:21 51°14.232 2°55.312 -999 -999 -999 -999 -999
2008-04-29 07:22 51°14.321 2°55.148 -999 -999 -999 -999 -999
2008-04-29 07:23 51°14.42 2°54.948 -999 -999 -999 -999 -999
2008-04-29 07:24 51°14.53 2°54.699 -999 -999 -999 -999 -999
2008-04-29 07:25 51°14.621 2°54.421 -999 -999 -999 -999 -999
2008-04-29 07:26 51°14.664 2°54.116 -999 -999 -999 -999 -999
2008-04-29 07:27 51°14.706 2°53.81 -999 -999 -999 -999 -999
2008-04-29 07:28 51°14.76 2°53.504 -999 -999 -999 -999 -999
2008-04-29 07:29 51°14.811 2°53.19 -999 -999 -999 -999 -999
2008-04-29 07:30 51°14.859 2°52.877 -999 -999 -999 -999 -999
2008-04-29 07:31 51°14.911 2°52.567 -999 -999 -999 -999 -999
2008-04-29 07:32 51°14.964 2°52.259 -999 -999 -999 -999 -999
2008-04-29 07:33 51°15.018 2°51.953 -999 -999 -999 -999 -999
2008-04-29 07:34 51°15.072 2°51.645 -999 -999 -999 -999 -999
2008-04-29 07:35 51°15.126 2°51.343 -999 -999 -999 -999 -999
2008-04-29 07:36 51°15.183 2°51.033 -999 -999 -999 -999 -999
2008-04-29 07:37 51°15.238 2°50.735 -999 -999 -999 -999 -999
2008-04-29 07:38 51°15.311 2°50.439 -999 -999 -999 -999 -999
2008-04-29 07:39 51°15.378 2°50.141 -999 -999 -999 -999 -999
2008-04-29 07:40 51°15.44 2°49.836 -999 -999 -999 -999 -999
2008-04-29 07:41 51°15.501 2°49.527 -999 -999 -999 -999 -999
2008-04-29 07:42 51°15.562 2°49.228 -999 -999 -999 -999 -999
2008-04-29 07:43 51°15.632 2°48.92 -999 -999 -999 -999 -999
2008-04-29 07:44 51°15.698 2°48.621 -999 -999 -999 -999 -999
2008-04-29 07:45 51°15.754 2°48.314 -999 -999 -999 -999 -999
2008-04-29 07:46 51°15.811 2°48.012 -999 -999 -999 -999 -999
2008-04-29 07:47 51°15.872 2°47.71 -999 -999 -999 -999 -999
2008-04-29 07:48 51°15.934 2°47.411 -999 -999 -999 -999 -999
2008-04-29 07:49 51°15.998 2°47.112 -999 -999 -999 -999 -999
2008-04-29 07:50 51°16.063 2°46.809 -999 -999 -999 -999 -999
2008-04-29 07:51 51°16.133 2°46.516 -999 -999 -999 -999 -999
2008-04-29 07:52 51°16.198 2°46.21 -999 -999 -999 -999 -999
2008-04-29 07:53 51°16.258 2°45.912 -999 -999 -999 -999 -999
2008-04-29 07:54 51°16.323 2°45.604 -999 -999 -999 -999 -999
2008-04-29 07:55 51°16.393 2°45.309 -999 -999 -999 -999 -999
2008-04-29 07:56 51°16.486 2°45.015 -999 -999 -999 -999 -999
2008-04-29 07:57 51°16.603 2°44.745 -999 -999 -999 -999 -999
2008-04-29 07:58 51°16.717 2°44.477 -999 -999 -999 -999 -999
2008-04-29 07:59 51°16.83 2°44.193 -999 -999 -999 -999 -999
2008-04-29 08:00 51°16.94 2°43.92 -999 -999 -999 -999 -999
2008-04-29 08:01 51°17.051 2°43.637 -999 -999 -999 -999 -999
2008-04-29 08:02 51°17.159 2°43.364 -999 -999 -999 -999 -999
2008-04-29 08:03 51°17.267 2°43.087 -999 -999 -999 -999 -999
2008-04-29 08:04 51°17.383 2°42.819 -999 -999 -999 -999 -999
2008-04-29 08:05 51°17.499 2°42.549 3.9 260 -999 -999 -999
2008-04-29 08:06 51°17.616 2°42.281 5.6 254 8.6 100090 93
2008-04-29 08:07 51°17.738 2°42.019 3.8 19 8.6 100090 93
2008-04-29 08:08 51°17.865 2°41.749 4.6 24 8.7 100090 93
2008-04-29 08:09 51°17.981 2°41.473 8.3 254 8.8 100090 93
2008-04-29 08:10 51°18.095 2°41.199 7 255 8.8 100090 93
2008-04-29 08:11 51°18.208 2°40.926 4.1 262 8.8 100090 92
2008-04-29 08:12 51°18.325 2°40.66 5.7 258 8.7 100080 92
2008-04-29 08:13 51°18.438 2°40.391 5.7 257 8.8 100080 92
2008-04-29 08:14 51°18.554 2°40.126 6.1 252 8.9 100080 92
2008-04-29 08:15 51°18.677 2°39.86 5.1 259 8.9 100090 92
2008-04-29 08:16 51°18.8 2°39.591 3.6 261 8.8 100080 91
2008-04-29 08:17 51°18.922 2°39.322 4.8 248 8.8 100080 91
2008-04-29 08:18 51°19.035 2°39.048 4.6 259 8.8 100070 91
2008-04-29 08:19 51°19.152 2°38.777 4.7 260 8.8 100070 91
2008-04-29 08:20 51°19.265 2°38.503 5.5 252 8.8 100070 91
2008-04-29 08:21 51°19.382 2°38.227 4 264 8.8 100070 90
2008-04-29 08:22 51°19.496 2°37.952 5.2 257 8.8 100070 91
2008-04-29 08:23 51°19.612 2°37.679 2.9 259 8.8 100070 91
2008-04-29 08:24 51°19.728 2°37.408 5.7 258 8.8 100070 91
2008-04-29 08:25 51°19.848 2°37.142 3.9 260 8.8 100060 91
2008-04-29 08:26 51°19.949 2°36.957 4.9 21 8.7 100060 90
2008-04-29 08:27 51°20.007 2°36.858 9.4 270 8.6 100070 90
2008-04-29 08:28 51°20.025 2°36.82 6.2 263 8.6 100070 91
2008-04-29 08:29 51°20.043 2°36.828 7.5 31 8.6 100070 91
2008-04-29 08:30 51°20.061 2°36.858 6.9 19 8.6 100070 91
2008-04-29 08:31 51°20.076 2°36.877 7.4 21 8.6 100070 92
2008-04-29 08:32 51°20.09 2°36.897 9.1 21 8.7 100070 93
2008-04-29 08:33 51°20.1 2°36.919 6 25 8.6 100070 93
2008-04-29 08:34 51°20.115 2°36.932 7 26 8.8 100060 94
2008-04-29 08:35 51°20.135 2°36.94 6 20 8.9 100070 94
2008-04-29 08:36 51°20.157 2°36.944 7.4 25 9 100070 92
2008-04-29 08:37 51°20.18 2°36.944 6.3 22 8.9 100070 92
2008-04-29 08:38 51°20.202 2°36.941 7.4 26 8.8 100070 92
2008-04-29 08:39 51°20.224 2°36.938 9.8 21 8.7 100080 92
2008-04-29 08:40 51°20.244 2°36.933 9.6 270 8.7 100070 93
2008-04-29 08:41 51°20.246 2°36.889 10.6 25 8.7 100080 93
2008-04-29 08:42 51°20.199 2°36.874 10.4 322 8.7 100060 93
2008-04-29 08:43 51°20.129 2°36.9 11.6 328 8.7 100050 93
2008-04-29 08:44 51°20.082 2°36.917 8.9 324 8.8 100040 93
2008-04-29 08:45 51°20.063 2°36.929 9.1 327 8.8 100040 92
2008-04-29 08:46 51°20.055 2°36.945 9.5 330 8.9 100050 92
2008-04-29 08:47 51°20.062 2°36.956 9.1 331 8.9 100040 92
2008-04-29 08:48 51°20.074 2°36.965 9.8 327 8.9 100050 92
2008-04-29 08:49 51°20.088 2°36.969 8.4 25 8.9 100040 92
2008-04-29 08:50 51°20.08 2°36.953 10.9 21 9 100030 92
2008-04-29 08:51 51°20.069 2°36.923 10.1 20 9 100030 92
2008-04-29 08:52 51°20.073 2°36.909 8.3 23 9 100040 92
2008-04-29 08:53 51°20.093 2°36.912 9.7 257 9 100040 92
2008-04-29 08:54 51°20.117 2°36.94 7.7 267 9.1 100050 92
2008-04-29 08:55 51°20.135 2°36.965 8.8 270 9.1 100040 92
2008-04-29 08:56 51°20.152 2°36.986 9.4 23 9 100040 92
2008-04-29 08:57 51°20.168 2°37.001 7.7 22 9.1 100040 92
2008-04-29 08:58 51°20.186 2°37.012 10.4 20 9 100040 92
2008-04-29 08:59 51°20.205 2°37.018 10.5 22 9 100040 92
2008-04-29 09:00 51°20.224 2°37.018 11.4 270 9 100040 92
2008-04-29 09:01 51°20.242 2°37.018 6.8 267 9.1 100040 92
2008-04-29 09:02 51°20.259 2°37.019 7 264 9 100040 92
2008-04-29 09:03 51°20.277 2°37.02 8.5 262 9.1 100040 92
2008-04-29 09:04 51°20.296 2°37.023 10.2 259 9.1 100030 92
2008-04-29 09:05 51°20.314 2°37.026 5.2 262 9.2 100040 92
2008-04-29 09:06 51°20.334 2°37.031 7.1 264 9.2 100040 92
2008-04-29 09:07 51°20.354 2°37.037 8 266 9.1 100040 91
2008-04-29 09:08 51°20.373 2°37.042 7.1 267 9.2 100040 91
2008-04-29 09:09 51°20.392 2°37.047 8.1 268 9.1 100030 91
2008-04-29 09:10 51°20.411 2°37.052 5.7 263 9.2 100040 92
2008-04-29 09:11 51°20.43 2°37.059 7.2 270 9.2 100040 92
2008-04-29 09:12 51°20.45 2°37.063 5.5 265 9.1 100030 92
2008-04-29 09:13 51°20.456 2°37.026 9.3 23 9.1 100040 92
2008-04-29 09:14 51°20.421 2°37.002 11 324 9.2 100020 92
2008-04-29 09:15 51°20.36 2°37.004 10.5 319 9.2 100010 92
2008-04-29 09:16 51°20.294 2°36.989 10.8 321 9.3 100020 93
2008-04-29 09:17 51°20.247 2°36.967 9.8 25 9.2 100020 92
2008-04-29 09:18 51°20.212 2°36.945 10.6 26 9.2 100010 92
2008-04-29 09:19 51°20.202 2°36.912 9.4 251 9.2 100020 92
2008-04-29 09:20 51°20.212 2°36.897 9.8 254 9.2 100030 92
2008-04-29 09:21 51°20.225 2°36.885 10.3 254 9.3 100020 93
2008-04-29 09:22 51°20.241 2°36.877 9.2 257 9.2 100020 92
2008-04-29 09:23 51°20.257 2°36.872 9.9 258 9.2 100030 92
2008-04-29 09:24 51°20.275 2°36.868 9.6 258 9.2 100020 92
2008-04-29 09:25 51°20.293 2°36.865 6.3 260 9.2 100020 92
2008-04-29 09:26 51°20.309 2°36.863 8.9 259 9.2 100020 93
2008-04-29 09:27 51°20.327 2°36.859 9.7 256 9.2 100020 92
2008-04-29 09:28 51°20.318 2°36.821 9.8 315 9.3 100020 93
2008-04-29 09:29 51°20.257 2°36.828 9.9 323 9.3 100010 93
2008-04-29 09:30 51°20.214 2°36.849 9.7 332 9.3 100010 93
2008-04-29 09:31 51°20.195 2°36.865 9.8 330 9.2 100010 93
2008-04-29 09:32 51°20.195 2°36.873 9.5 335 9.2 100010 93
2008-04-29 09:33 51°20.205 2°36.879 9.5 342 9.1 100000 93
2008-04-29 09:34 51°20.223 2°36.883 9.4 355 9.1 100010 93
2008-04-29 09:35 51°20.241 2°36.884 7.5 4 9.2 100020 93
2008-04-29 09:36 51°20.246 2°36.929 9.3 347 9.1 100010 93
2008-04-29 09:37 51°20.205 2°36.96 8.9 324 9.2 100020 94
2008-04-29 09:38 51°20.179 2°36.959 7.4 319 9.2 100010 94
2008-04-29 09:39 51°20.183 2°36.949 7.8 243 9.1 100010 94
2008-04-29 09:40 51°20.195 2°36.935 9.4 255 9.1 100010 94
2008-04-29 09:41 51°20.211 2°36.924 8.9 258 9.1 100030 94
2008-04-29 09:42 51°20.229 2°36.917 7.2 265 9.2 100030 95
2008-04-29 09:43 51°20.218 2°36.862 10.5 318 9.2 100000 95
2008-04-29 09:44 51°20.198 2°36.852 9.5 337 9.2 100010 94
2008-04-29 09:45 51°20.2 2°36.859 9.5 354 9.1 99990 94
2008-04-29 09:46 51°20.212 2°36.873 9.3 6 9.2 99990 94
2008-04-29 09:47 51°20.229 2°36.881 10.5 16 9.2 99990 93
2008-04-29 09:48 51°20.248 2°36.884 11.6 20 9.1 100010 93
2008-04-29 09:49 51°20.267 2°36.886 8.8 24 9.2 100010 92
2008-04-29 09:50 51°20.286 2°36.885 9.6 26 9.2 100010 92
2008-04-29 09:51 51°20.305 2°36.884 8.9 25 9.2 100020 91
2008-04-29 09:52 51°20.323 2°36.883 10.2 25 9.2 100010 91
2008-04-29 09:53 51°20.341 2°36.881 8.9 23 9.3 100010 92
2008-04-29 09:54 51°20.353 2°36.915 10.7 357 9.3 100000 91
2008-04-29 09:55 51°20.336 2°36.965 11.5 332 9.3 99980 91
2008-04-29 09:56 51°20.307 2°36.975 10.9 327 9.3 99990 91
2008-04-29 09:57 51°20.291 2°36.967 9.8 319 9.3 99980 90
2008-04-29 09:58 51°20.283 2°36.953 10.1 319 9.3 99990 90
2008-04-29 09:59 51°20.28 2°36.936 9.8 320 9.4 99980 90
2008-04-29 10:00 51°20.281 2°36.922 11.4 321 9.4 99980 90
2008-04-29 10:01 51°20.284 2°36.907 11 321 9.4 99980 90
2008-04-29 10:02 51°20.286 2°36.891 11.6 325 9.4 99980 89
2008-04-29 10:03 51°20.267 2°36.874 12.2 323 9.3 99980 88
2008-04-29 10:04 51°20.249 2°36.859 9.9 328 9.4 99980 87
2008-04-29 10:05 51°20.241 2°36.845 11.1 325 9.4 99980 87
2008-04-29 10:06 51°20.236 2°36.839 9.6 337 9.4 99980 87
2008-04-29 10:07 51°20.238 2°36.846 10.9 355 9.4 99960 87
2008-04-29 10:08 51°20.253 2°36.85 7.7 5 9.3 99970 86
2008-04-29 10:09 51°20.271 2°36.848 10.4 20 9.3 99970 87
2008-04-29 10:10 51°20.277 2°36.894 10.8 349 9.4 99970 88
2008-04-29 10:11 51°20.235 2°36.921 11.2 26 9.4 99970 88
2008-04-29 10:12 51°20.219 2°36.868 7.9 20 9.4 99970 87
2008-04-29 10:13 51°20.226 2°36.805 11.9 259 9.4 99960 87
2008-04-29 10:14 51°20.239 2°36.746 8.3 266 9.5 99980 86
2008-04-29 10:15 51°20.257 2°36.699 8.4 264 9.4 99970 86
2008-04-29 10:16 51°20.272 2°36.666 8 264 9.5 99970 86
2008-04-29 10:17 51°20.284 2°36.641 10.5 253 9.5 99960 86
2008-04-29 10:18 51°20.297 2°36.622 9.2 252 9.5 99960 85
2008-04-29 10:19 51°20.31 2°36.607 11.5 256 9.6 99960 86
2008-04-29 10:20 51°20.325 2°36.591 12.1 256 9.7 99970 85
2008-04-29 10:21 51°20.325 2°36.548 10.4 22 9.8 99960 85
2008-04-29 10:22 51°20.283 2°36.54 9.6 343 9.7 99950 84
2008-04-29 10:23 51°20.277 2°36.561 7.3 5 9.6 99960 83
2008-04-29 10:24 51°20.291 2°36.561 8.8 22 9.6 99960 85
2008-04-29 10:25 51°20.308 2°36.559 8.5 25 9.5 99970 86
2008-04-29 10:26 51°20.324 2°36.557 8.5 17 9.6 99970 86
2008-04-29 10:27 51°20.339 2°36.552 9.4 21 9.6 99970 87
2008-04-29 10:28 51°20.355 2°36.548 9.1 26 9.6 99960 87
2008-04-29 10:29 51°20.371 2°36.543 8.8 19 9.6 99960 86
2008-04-29 10:30 51°20.387 2°36.537 10.2 18 9.6 99960 86
2008-04-29 10:31 51°20.402 2°36.53 9.6 19 9.6 99960 86
2008-04-29 10:32 51°20.413 2°36.559 9.9 358 9.6 99960 86
2008-04-29 10:33 51°20.368 2°36.641 11.5 341 9.5 99940 85
2008-04-29 10:34 51°20.258 2°36.828 16.3 343 9.6 99930 87
2008-04-29 10:35 51°20.127 2°37.057 15.3 344 9.5 99920 85
2008-04-29 10:36 51°19.996 2°37.291 14.9 345 9.6 99920 85
2008-04-29 10:37 51°19.873 2°37.536 16.5 343 9.6 99920 85
2008-04-29 10:38 51°19.748 2°37.776 15.4 343 9.5 99910 83
2008-04-29 10:39 51°19.627 2°38.021 15.6 345 9.6 99930 85
2008-04-29 10:40 51°19.501 2°38.261 13.6 343 9.5 99910 84
2008-04-29 10:41 51°19.378 2°38.504 15.5 346 9.5 99920 84
2008-04-29 10:42 51°19.253 2°38.748 16 342 9.5 99920 85
2008-04-29 10:43 51°19.124 2°38.991 15.3 340 9.6 99920 85
2008-04-29 10:44 51°18.998 2°39.236 15.2 341 9.6 99920 86
2008-04-29 10:45 51°18.874 2°39.483 15.2 340 9.7 99920 87
2008-04-29 10:46 51°18.758 2°39.737 16.4 343 9.6 99920 87
2008-04-29 10:47 51°18.642 2°39.989 16 343 9.6 99910 87
2008-04-29 10:48 51°18.522 2°40.237 15.5 346 9.6 99920 87
2008-04-29 10:49 51°18.403 2°40.481 14.3 345 9.6 99930 88
2008-04-29 10:50 51°18.286 2°40.728 13.6 344 9.6 99920 87
2008-04-29 10:51 51°18.168 2°40.973 15.3 346 9.6 99920 87
2008-04-29 10:52 51°18.051 2°41.222 14.1 346 9.7 99900 86
2008-04-29 10:53 51°17.936 2°41.469 14 343 9.7 99920 86
2008-04-29 10:54 51°17.817 2°41.712 13.1 346 9.8 99920 86
2008-04-29 10:55 51°17.699 2°41.953 13.7 346 9.8 99910 86
2008-04-29 10:56 51°17.581 2°42.196 14.2 345 9.8 99890 85
2008-04-29 10:57 51°17.459 2°42.437 14.9 345 9.9 99910 85
2008-04-29 10:58 51°17.339 2°42.677 15.9 346 9.9 99890 85
2008-04-29 10:59 51°17.222 2°42.911 16 346 9.9 99900 85
2008-04-29 11:00 51°17.108 2°43.155 16.5 346 9.9 99900 85
2008-04-29 11:01 51°16.997 2°43.405 15.1 345 9.9 99910 85
2008-04-29 11:02 51°16.871 2°43.636 16.7 346 9.8 99880 84
2008-04-29 11:03 51°16.727 2°43.843 16.9 344 9.9 99890 84
2008-04-29 11:04 51°16.582 2°44.048 16.3 341 9.9 99910 86
2008-04-29 11:05 51°16.431 2°44.248 16.5 339 9.9 99910 86
2008-04-29 11:06 51°16.283 2°44.446 14.1 342 9.9 99900 85
2008-04-29 11:07 51°16.131 2°44.639 16 340 9.9 99910 86
2008-04-29 11:08 51°15.997 2°44.857 15.2 347 9.9 99910 87
2008-04-29 11:09 51°15.916 2°45.134 14.1 349 9.8 99890 86
2008-04-29 11:10 51°15.846 2°45.419 15.2 350 9.8 99900 87
2008-04-29 11:11 51°15.807 2°45.72 13.5 351 9.7 99900 88
2008-04-29 11:12 51°15.761 2°46.019 14.4 350 9.7 99910 88
2008-04-29 11:13 51°15.705 2°46.314 16.5 355 9.7 99900 88
2008-04-29 11:14 51°15.652 2°46.609 12.2 353 9.7 99910 88
2008-04-29 11:15 51°15.595 2°46.902 11.9 351 9.8 99910 88
2008-04-29 11:16 51°15.542 2°47.197 13 352 9.7 99890 87
2008-04-29 11:17 51°15.483 2°47.49 12.5 353 9.7 99900 87
2008-04-29 11:18 51°15.43 2°47.783 14.1 353 9.8 99910 88
2008-04-29 11:19 51°15.388 2°48.081 13.2 355 9.8 99900 87
2008-04-29 11:20 51°15.342 2°48.379 14.5 349 9.8 99900 86
2008-04-29 11:21 51°15.29 2°48.676 14.1 354 9.9 99900 87
2008-04-29 11:22 51°15.239 2°48.974 12.8 353 9.9 99890 87
2008-04-29 11:23 51°15.203 2°49.275 14 353 9.9 99890 86
2008-04-29 11:24 51°15.167 2°49.578 12.3 353 9.9 99890 86
2008-04-29 11:25 51°15.135 2°49.82 11.6 358 9.9 99910 87
2008-04-29 11:26 51°15.114 2°50.069 12.7 353 9.9 99890 87
2008-04-29 11:27 51°15.09 2°50.371 12.6 355 10 99890 87
2008-04-29 11:28 51°15.062 2°50.675 14.4 355 10 99890 86
2008-04-29 11:29 51°15.032 2°50.977 12.8 355 10 99900 86
2008-04-29 11:30 51°15.003 2°51.212 12.2 358 10 99900 85
2008-04-29 11:31 51°14.98 2°51.393 10.3 4 10 99890 83
2008-04-29 11:32 51°14.958 2°51.591 10 -999 10.1 99890 82
2008-04-29 11:33 51°14.933 2°51.814 12.3 358 10.2 99900 84
2008-04-29 11:34 51°14.904 2°52.037 12.2 357 10.2 99890 83
2008-04-29 11:35 51°14.862 2°52.253 11.7 359 10.2 99890 82
2008-04-29 11:36 51°14.799 2°52.508 13.7 354 10.3 99900 83
2008-04-29 11:37 51°14.733 2°52.79 12.7 354 10.3 99900 83
2008-04-29 11:38 51°14.655 2°53.067 15.7 356 10.3 99890 82
2008-04-29 11:39 51°14.589 2°53.349 12.7 357 10.3 99890 79
2008-04-29 11:40 51°14.536 2°53.618 10.9 -999 10.4 99900 82
2008-04-29 11:41 51°14.496 2°53.85 9.3 7 10.3 99890 80
2008-04-29 11:42 51°14.499 2°54.093 8.2 9 10.4 99920 80
2008-04-29 11:43 51°14.527 2°54.344 10.6 8 10.5 99910 81
2008-04-29 11:44 51°14.507 2°54.607 10.9 358 10.4 99900 79
2008-04-29 11:45 51°14.445 2°54.807 9.2 350 10.5 99890 81
2008-04-29 11:46 51°14.38 2°54.997 8.8 347 10.6 99920 80
2008-04-29 11:47 51°14.305 2°55.174 10.1 349 10.6 99920 80
2008-04-29 11:48 51°14.237 2°55.305 8 342 10.7 99910 79
2008-04-29 11:49 51°14.151 2°55.403 11.3 342 10.7 99910 79
2008-04-29 11:50 51°14.065 2°55.487 11.3 340 10.7 99910 79
2008-04-29 11:51 51°13.968 2°55.559 10.9 331 10.6 99920 79
2008-04-29 11:52 51°13.864 2°55.618 10 336 10.7 99910 79
2008-04-29 11:53 51°13.784 2°55.677 8.7 337 10.7 99910 81
2008-04-29 11:54 51°13.74 2°55.763 7.9 353 10.7 99920 81
2008-04-29 11:55 51°13.697 2°55.853 8.4 350 10.6 99920 81
2008-04-29 11:56 51°13.67 2°55.933 5.7 -999 10.6 99930 83
2008-04-29 11:57 51°13.666 2°55.95 4.3 355 10.6 99920 83